« Back
NWS Peachtree City, Ga » Text Product » ATL Terminal Aerodrome Forecast


Printer-friendly Version
Current Version              Previous Versions:   1  2  3  4  5  6  7  8  9  

Terminal Aerodrome Forecast

804
FTUS42 KFFC 092146 AAB
TAFATL
TAF AMD
KATL 092146Z 0922/1024 28014G25KT P6SM SCT030 BKN040 OVC070
      TEMPO 0922/1002 6SM -SHSN BKN030
     FM100200 30012G18KT P6SM VCSH BKN030
     FM101500 29015G25KT P6SM SCT035=

USA.gov is the U.S. government's official web portal to all federal, state and local government web resources and services.